map of BCT home
BCT - Airport
Location
City:  Boca Raton, Florida, United States
ICAO:KBCT
IATA:BCT
FAA LID:BCT

Details
Type:Airport (Airfield)
Use:Public/Civil
Latitude:2622'43"N (26.378500)
Longitude:8006'28"W (-80.107693)
Datum:WGS 1984
Elevation:13 ft (4 m)
Variation:6.84W (WMM2015 magnetic declination)
-0.10 annual change
Runways:1
Longest:6276 × 150 ft (1913 × 45.5 m), paved

Time
Time Zone:UTC-5 (DST-4)
Local Time:

Weather
METAR:KBCT 131747Z 32007KT 10SM CLR 17/01 A3007

Related Locations
Nearby:
Farthest:USL: 11609 mi / 18682 km
Useless Loop, WA, AU

Find:

   beyond  
but within

Other Information
Maps:
NOTAMs:
Links:
Sources:

  
flag of United States
flag of Florida
  

Airport Diagram

Airport diagram for BCT

Airport diagram PDF

Sectional Chart

Flight Planning
at skyvector.com

Satellite Image

Google Maps Satellite view

 

Copyright © 2004-2017 Karl L. Swartz. All rights reserved.
The Great Circle Mapper name and logo are trademarks of the Great Circle Mapper.
All other trademarks mentioned herein belong to their respective owners.
Please see credits for attibutions and further copyright information.

  Follow gcmap on Facebook Follow gcmap on Twitter Follow gcmap on Google+ GCmap on LinkedIn

hCard Microformat

Geo Microformat